Daniel, Wyoming
Current Conditions -  °F | °C
As of 3:35 AM on Friday 24 Oct 2014 (Local Time) from KPNA Reporting Station
Broken Clouds Broken Clouds  
Wind Chill: -2°   Ceiling: 10000
Heat Index:   Visibility: 10mi
Dew Point: -1°   Wind: 6mph
Humidity: 87%   Direction: 320°NW
Pressure: 30.21"   Gusts: NA
Location:  42.86°N, 110.07°W
Report Text: KPNA 240935Z AUTO 32005KT 10SM BKN100 01/M01 A3021 RMK AO2
Loading
Personal Weather Stations






























Interactive Weather Map
Tropical Storm Tracking
New forecast layout! Learn more

10-Day Weather Forecast

Advertisements
Track Severe Weather on mobile